Time;durP1;ratioP1;P1;durP2;ratioP2;P2;SDS_P1;SDS_P2;PMS_P1;PMS_P2;Temp;Humidity;BMP_temperature;BMP_pressure;BME280_temperature;BME280_humidity;BME280_pressure;Samples;Min_cycle;Max_cycle;Signal;HPM_P1;HPM_P2
2021/12/14 00:01:34;;;;;;;14.35;11.38;;;8.20;99.90;;;;;;5061688;28;20431;-72
2021/12/14 00:04:24;;;;;;;14.57;11.75;;;8.30;99.90;;;;;;5044429;28;20229;-70
2021/12/14 00:07:14;;;;;;;12.47;9.90;;;8.30;99.90;;;;;;5041372;28;20209;-73
2021/12/14 00:10:13;;;;;;;14.38;10.32;;;8.30;99.90;;;;;;5046803;28;20548;-72
2021/12/14 00:13:09;;;;;;;16.70;11.33;;;8.20;99.90;;;;;;5051580;28;20216;-72
2021/12/14 00:15:58;;;;;;;12.87;10.57;;;8.20;99.90;;;;;;5032639;28;21024;-72
2021/12/14 00:18:44;;;;;;;18.47;11.70;;;8.20;99.90;;;;;;5046827;28;20821;-72
2021/12/14 00:21:31;;;;;;;13.60;10.43;;;8.20;99.90;;;;;;5051354;28;20813;-72
2021/12/14 00:24:17;;;;;;;20.73;11.95;;;8.30;99.90;;;;;;5048331;28;20828;-72
2021/12/14 00:27:06;;;;;;;14.05;10.57;;;8.30;99.90;;;;;;5062249;28;20221;-72
2021/12/14 00:29:56;;;;;;;16.63;11.37;;;8.20;99.90;;;;;;5062922;28;20558;-72
2021/12/14 00:32:42;;;;;;;21.70;11.23;;;8.10;99.90;;;;;;5072738;28;20423;-72
2021/12/14 00:35:28;;;;;;;13.03;9.57;;;8.10;99.90;;;;;;5043924;28;20482;-73
2021/12/14 00:38:17;;;;;;;16.13;11.95;;;8.10;99.90;;;;;;5054077;28;20451;-72
2021/12/14 00:41:10;;;;;;;13.43;11.30;;;8.10;99.90;;;;;;5053826;28;20542;-72
2021/12/14 00:43:57;;;;;;;14.90;11.80;;;8.10;99.90;;;;;;5049841;28;21004;-72
2021/12/14 00:46:44;;;;;;;14.88;11.30;;;8.20;99.90;;;;;;5034661;28;20942;-72
2021/12/14 00:49:30;;;;;;;15.90;10.63;;;8.20;99.90;;;;;;5034910;28;20233;-72
2021/12/14 00:52:16;;;;;;;19.10;11.33;;;8.20;99.90;;;;;;5034892;28;20511;-72
2021/12/14 00:55:02;;;;;;;15.18;9.88;;;8.20;99.90;;;;;;5035566;28;20880;-72
2021/12/14 00:57:48;;;;;;;13.57;9.82;;;8.20;99.90;;;;;;5068217;28;20208;-72
2021/12/14 01:00:39;;;;;;;15.15;10.35;;;8.20;99.90;;;;;;5062437;28;20272;-72
2021/12/14 01:03:29;;;;;;;14.17;10.33;;;8.20;99.90;;;;;;5052077;28;20255;-72
2021/12/14 01:06:16;;;;;;;12.52;10.10;;;8.20;99.90;;;;;;5034429;28;20503;-72
2021/12/14 01:09:05;;;;;;;13.15;9.23;;;8.20;99.90;;;;;;5034712;28;20209;-72
2021/12/14 01:11:54;;;;;;;14.15;9.90;;;8.20;99.90;;;;;;5052660;28;20205;-71
2021/12/14 01:14:46;;;;;;;22.37;10.47;;;8.20;99.90;;;;;;5050531;28;20232;-71
2021/12/14 01:17:42;;;;;;;16.10;10.35;;;8.10;99.90;;;;;;5054147;28;20428;-71
2021/12/14 01:20:37;;;;;;;12.83;10.33;;;8.10;99.90;;;;;;5052958;28;20224;-71
2021/12/14 01:23:30;;;;;;;13.33;8.53;;;8.10;99.90;;;;;;5049427;28;20455;-72
2021/12/14 01:26:20;;;;;;;13.05;9.70;;;8.10;99.90;;;;;;5043133;28;20419;-72
2021/12/14 01:29:07;;;;;;;15.17;9.37;;;8.00;99.90;;;;;;5055280;28;20694;-72
2021/12/14 01:31:59;;;;;;;11.77;9.00;;;8.10;99.90;;;;;;5054415;28;20916;-72
2021/12/14 01:34:45;;;;;;;11.63;9.43;;;8.10;99.90;;;;;;5039672;28;20463;-72
2021/12/14 01:37:40;;;;;;;16.30;8.90;;;8.10;99.90;;;;;;5062288;28;20501;-72
2021/12/14 01:40:52;;;;;;;13.30;9.50;;;8.10;99.90;;;;;;5071519;28;20262;-72
2021/12/14 01:43:43;;;;;;;13.37;9.50;;;8.10;99.90;;;;;;5059919;28;20443;-72
2021/12/14 01:46:31;;;;;;;15.38;8.70;;;8.10;99.90;;;;;;5060007;28;21001;-72
2021/12/14 01:49:18;;;;;;;16.70;8.97;;;8.10;99.90;;;;;;5055679;28;20205;-72
2021/12/14 01:52:09;;;;;;;14.30;9.40;;;8.10;99.90;;;;;;5055512;28;20464;-73
2021/12/14 01:54:58;;;;;;;17.90;9.10;;;8.10;99.90;;;;;;5086041;22;21009;-75
2021/12/14 01:57:44;;;;;;;10.90;8.63;;;8.20;99.90;;;;;;5074152;28;20423;-75
2021/12/14 02:00:35;;;;;;;15.18;9.85;;;8.20;99.90;;;;;;5073525;28;20493;-75
2021/12/14 02:03:34;;;;;;;11.27;8.80;;;8.30;99.90;;;;;;5072724;28;20200;-75
2021/12/14 02:06:25;;;;;;;13.20;9.38;;;8.30;99.90;;;;;;5073102;28;20446;-76
2021/12/14 02:09:14;;;;;;;14.37;9.57;;;8.20;99.90;;;;;;5073567;28;20196;-76
2021/12/14 02:12:07;;;;;;;12.93;8.93;;;8.20;99.90;;;;;;5073023;28;20481;-76
2021/12/14 02:14:54;;;;;;;12.63;8.57;;;8.10;99.90;;;;;;5072712;28;20504;-77
2021/12/14 02:17:41;;;;;;;11.10;8.52;;;8.10;99.90;;;;;;5072933;28;20427;-76
2021/12/14 02:20:31;;;;;;;11.65;8.85;;;8.10;99.90;;;;;;5072760;28;20310;-76
2021/12/14 02:23:20;;;;;;;12.30;7.95;;;8.20;99.90;;;;;;5067156;28;20212;-76
2021/12/14 02:26:10;;;;;;;18.52;11.27;;;8.20;99.90;;;;;;5070910;28;20231;-76
2021/12/14 02:29:01;;;;;;;13.10;8.73;;;8.10;99.90;;;;;;5070420;28;20697;-76
2021/12/14 02:31:47;;;;;;;15.48;8.35;;;8.00;99.90;;;;;;5071216;28;20540;-76
2021/12/14 02:34:38;;;;;;;12.10;9.68;;;8.00;99.90;;;;;;5067592;28;20302;-77
2021/12/14 02:37:36;;;;;;;11.50;8.30;;;8.10;99.90;;;;;;5067799;28;20208;-77
2021/12/14 02:40:53;;;;;;;10.35;7.65;;;8.10;99.90;;;;;;5068077;28;20439;-77
2021/12/14 02:43:42;;;;;;;11.95;8.00;;;8.10;99.90;;;;;;5067351;28;20212;-78
2021/12/14 02:46:31;;;;;;;16.83;9.10;;;8.10;99.90;;;;;;5072514;28;20199;-77
2021/12/14 02:49:19;;;;;;;11.90;8.88;;;8.20;99.90;;;;;;5061192;28;20252;-77
2021/12/14 02:52:08;;;;;;;13.23;8.20;;;8.20;99.90;;;;;;5067922;28;20315;-76
2021/12/14 02:54:59;;;;;;;13.30;8.50;;;8.20;99.90;;;;;;5068615;28;20568;-77
2021/12/14 02:57:48;;;;;;;11.55;8.60;;;8.10;99.90;;;;;;5071013;28;20552;-77
2021/12/14 03:00:39;;;;;;;11.70;8.40;;;8.10;99.90;;;;;;5069956;28;20205;-77
2021/12/14 03:03:26;;;;;;;13.20;7.77;;;8.20;99.90;;;;;;5069974;28;20532;-77
2021/12/14 03:06:18;;;;;;;10.40;7.87;;;8.10;99.90;;;;;;5065769;28;20463;-77
2021/12/14 03:09:19;;;;;;;11.57;8.73;;;8.10;99.90;;;;;;5066577;28;20461;-77
2021/12/14 03:12:09;;;;;;;13.57;8.37;;;8.10;99.90;;;;;;5066654;28;20278;-77
2021/12/14 03:15:00;;;;;;;12.57;7.43;;;8.10;99.90;;;;;;5063909;28;20968;-78
2021/12/14 03:17:47;;;;;;;10.98;7.35;;;8.00;99.90;;;;;;5070145;28;20447;-77
2021/12/14 03:20:36;;;;;;;14.75;7.97;;;8.00;99.90;;;;;;5074210;28;20701;-77
2021/12/14 03:23:26;;;;;;;11.60;8.23;;;8.10;99.90;;;;;;5067438;28;20203;-76
2021/12/14 03:26:16;;;;;;;14.15;7.78;;;8.10;99.90;;;;;;5069616;28;20228;-77
2021/12/14 03:29:07;;;;;;;13.55;9.32;;;8.10;99.90;;;;;;5076409;28;20278;-77
2021/12/14 03:31:56;;;;;;;12.90;8.00;;;8.10;99.90;;;;;;5066754;28;20216;-77
2021/12/14 03:34:42;;;;;;;13.40;8.23;;;8.10;99.90;;;;;;5062947;28;20475;-77
2021/12/14 03:37:28;;;;;;;14.85;8.57;;;8.00;99.90;;;;;;5066486;28;20450;-76
2021/12/14 03:40:14;;;;;;;15.15;7.63;;;8.00;99.90;;;;;;5073391;28;20215;-79
2021/12/14 03:43:00;;;;;;;8.45;6.75;;;8.00;99.90;;;;;;5071919;28;20203;-77
2021/12/14 03:45:45;;;;;;;7.78;6.60;;;8.00;99.90;;;;;;5063754;28;20706;-77
2021/12/14 03:48:33;;;;;;;10.07;7.78;;;8.00;99.90;;;;;;5062006;28;20208;-77
2021/12/14 03:51:20;;;;;;;9.75;7.55;;;8.00;99.90;;;;;;5061783;28;20228;-77
2021/12/14 03:54:06;;;;;;;9.80;7.00;;;8.00;99.90;;;;;;5063699;28;20281;-77
2021/12/14 03:56:52;;;;;;;9.23;6.82;;;8.00;99.90;;;;;;5071081;28;20269;-77
2021/12/14 03:59:39;;;;;;;9.50;7.13;;;8.10;99.90;;;;;;5069214;28;20286;-77
2021/12/14 04:02:25;;;;;;;12.93;8.00;;;8.10;99.90;;;;;;5067191;28;20274;-77
2021/12/14 04:05:13;;;;;;;16.10;7.43;;;8.10;99.90;;;;;;5067537;28;20227;-78
2021/12/14 04:07:58;;;;;;;13.50;6.22;;;8.00;99.90;;;;;;5062384;28;20243;-78
2021/12/14 04:10:46;;;;;;;12.43;6.70;;;7.90;99.90;;;;;;5064973;28;20215;-77
2021/12/14 04:13:35;;;;;;;10.73;7.17;;;8.00;99.90;;;;;;5069365;28;20338;-77
2021/12/14 04:16:24;;;;;;;21.65;7.80;;;8.00;99.90;;;;;;5074739;28;20992;-77
2021/12/14 04:19:12;;;;;;;18.83;9.47;;;8.10;99.90;;;;;;5070315;28;20208;-77
2021/12/14 04:22:02;;;;;;;12.07;8.73;;;8.10;99.90;;;;;;5060869;28;20458;-78
2021/12/14 04:24:52;;;;;;;13.65;8.85;;;8.10;99.90;;;;;;5071276;28;20305;-77
2021/12/14 04:27:38;;;;;;;17.30;7.97;;;8.10;99.90;;;;;;5072854;28;20197;-77
2021/12/14 04:30:26;;;;;;;10.77;6.50;;;8.10;99.90;;;;;;5064299;28;20287;-77
2021/12/14 04:33:15;;;;;;;11.43;8.27;;;8.10;99.90;;;;;;5068967;28;20439;-77
2021/12/14 04:36:04;;;;;;;17.75;7.50;;;8.10;99.90;;;;;;5074360;28;20342;-77
2021/12/14 04:38:56;;;;;;;7.88;6.15;;;8.10;99.90;;;;;;5072108;28;20199;-77
2021/12/14 04:54:01;;;;;;;21.98;15.30;;;8.10;99.90;;;;;;5067138;28;20196;-77
2021/12/14 04:56:46;;;;;;;39.30;21.15;;;8.20;99.90;;;;;;5068965;28;20197;-77
2021/12/14 04:59:35;;;;;;;30.83;18.98;;;8.20;99.90;;;;;;5072321;28;20584;-77
2021/12/14 05:02:25;;;;;;;22.70;15.88;;;8.20;99.90;;;;;;5074427;28;20200;-77
2021/12/14 05:05:16;;;;;;;36.22;24.05;;;8.30;99.90;;;;;;5072235;28;20219;-77
2021/12/14 05:11:17;;;;;;;36.33;21.30;;;8.20;99.90;;;;;;5038513;28;20285;-78
2021/12/14 05:14:07;;;;;;;32.10;22.13;;;8.20;99.90;;;;;;5068669;28;20685;-78
2021/12/14 05:16:55;;;;;;;32.40;21.70;;;8.20;99.90;;;;;;5071231;28;20411;-77
2021/12/14 05:19:42;;;;;;;33.75;21.13;;;8.20;99.90;;;;;;5064083;28;20283;-77
2021/12/14 05:22:32;;;;;;;29.92;18.98;;;8.20;99.90;;;;;;5069435;28;20250;-77
2021/12/14 05:25:21;;;;;;;24.27;16.43;;;8.20;99.90;;;;;;5068682;28;20343;-77
2021/12/14 05:28:13;;;;;;;23.70;15.00;;;8.20;99.90;;;;;;5075906;28;20438;-77
2021/12/14 05:30:59;;;;;;;27.80;17.50;;;8.10;99.90;;;;;;5077995;28;20216;-78
2021/12/14 05:33:45;;;;;;;23.50;16.23;;;8.20;99.90;;;;;;5065030;28;20459;-77
2021/12/14 05:36:31;;;;;;;30.33;20.52;;;8.20;99.90;;;;;;5073414;28;20453;-78
2021/12/14 05:45:24;;;;;;;26.77;18.20;;;8.20;99.90;;;;;;5070458;28;20228;-76
2021/12/14 05:48:16;;;;;;;29.33;19.15;;;8.30;99.90;;;;;;5071004;28;20200;-76
2021/12/14 05:51:05;;;;;;;29.45;20.85;;;8.30;99.90;;;;;;5064046;28;20728;-77
2021/12/14 05:53:51;;;;;;;33.85;20.88;;;8.30;99.90;;;;;;5073020;28;20212;-77
2021/12/14 05:56:37;;;;;;;32.13;21.25;;;8.20;99.90;;;;;;5065428;28;20212;-77
2021/12/14 05:59:31;;;;;;;37.05;22.55;;;8.30;99.90;;;;;;5072272;28;20204;-77
2021/12/14 06:02:19;;;;;;;34.15;21.13;;;8.30;99.90;;;;;;5067721;28;20319;-77
2021/12/14 06:05:05;;;;;;;36.10;21.40;;;8.30;99.90;;;;;;5068722;28;20228;-77
2021/12/14 06:07:52;;;;;;;34.03;20.42;;;8.30;99.90;;;;;;5066769;28;20562;-77
2021/12/14 06:10:37;;;;;;;32.78;21.10;;;8.20;99.90;;;;;;5062437;28;20208;-77
2021/12/14 06:13:36;;;;;;;35.53;20.90;;;8.20;99.90;;;;;;5072124;28;20204;-78
2021/12/14 06:16:25;;;;;;;29.23;21.17;;;8.20;99.90;;;;;;5076387;28;20747;-77
2021/12/14 06:19:23;;;;;;;29.73;21.33;;;8.20;99.90;;;;;;5072226;28;20196;-78
2021/12/14 06:22:10;;;;;;;29.58;20.35;;;8.20;99.90;;;;;;5073922;28;20218;-77
2021/12/14 06:24:58;;;;;;;30.17;21.95;;;8.20;99.90;;;;;;5069325;28;20227;-78
2021/12/14 06:27:46;;;;;;;28.85;21.30;;;8.20;99.90;;;;;;5072920;28;20208;-77
2021/12/14 06:30:35;;;;;;;29.52;19.42;;;8.20;99.90;;;;;;5074175;28;20259;-77
2021/12/14 06:33:22;;;;;;;28.40;20.63;;;8.20;99.90;;;;;;5070595;28;20204;-77
2021/12/14 06:36:30;;;;;;;30.88;20.05;;;8.20;99.90;;;;;;5073283;28;20501;-76
2021/12/14 06:39:17;;;;;;;22.27;16.70;;;8.30;99.90;;;;;;5061160;28;20241;-77
2021/12/14 06:42:05;;;;;;;26.33;17.73;;;8.30;99.90;;;;;;5065691;28;20197;-77
2021/12/14 06:44:51;;;;;;;25.80;17.95;;;8.20;99.90;;;;;;5071275;28;20223;-77
2021/12/14 06:47:37;;;;;;;27.35;18.85;;;8.20;99.90;;;;;;5070020;28;20692;-77
2021/12/14 06:50:26;;;;;;;26.10;18.33;;;8.10;99.90;;;;;;5069887;28;20215;-77
2021/12/14 06:53:16;;;;;;;30.67;22.55;;;8.10;99.90;;;;;;5066306;28;20266;-77
2021/12/14 06:56:06;;;;;;;46.10;31.90;;;8.10;99.90;;;;;;5064519;28;20812;-77
2021/12/14 06:58:54;;;;;;;47.72;29.67;;;8.10;99.90;;;;;;5069764;28;20402;-77
2021/12/14 07:01:43;;;;;;;44.85;30.63;;;8.10;99.90;;;;;;5071322;28;20204;-78
2021/12/14 07:04:31;;;;;;;36.55;25.83;;;8.10;99.90;;;;;;5068688;28;20238;-76
2021/12/14 07:07:21;;;;;;;49.65;34.15;;;8.10;99.90;;;;;;5072815;28;20207;-77
2021/12/14 07:10:09;;;;;;;53.53;33.95;;;8.10;99.90;;;;;;5068145;28;20203;-77
2021/12/14 07:12:54;;;;;;;38.05;27.50;;;8.10;99.90;;;;;;5063040;28;20214;-78
2021/12/14 07:15:40;;;;;;;47.40;31.42;;;8.10;99.90;;;;;;5071404;28;20708;-78
2021/12/14 07:18:27;;;;;;;54.67;36.43;;;8.10;99.90;;;;;;5064929;28;20784;-77
2021/12/14 07:21:13;;;;;;;52.42;29.52;;;8.20;99.90;;;;;;5071373;28;20442;-77
2021/12/14 07:23:59;;;;;;;127.73;55.67;;;8.10;99.90;;;;;;5052210;28;20220;-77
2021/12/14 07:26:46;;;;;;;127.70;55.40;;;8.00;99.90;;;;;;5071834;28;20451;-77
2021/12/14 07:29:31;;;;;;;132.05;54.88;;;8.00;99.90;;;;;;5069443;28;20203;-77
2021/12/14 07:32:38;;;;;;;84.57;42.67;;;7.90;99.90;;;;;;5068076;28;20590;-76
2021/12/14 07:35:48;;;;;;;75.17;39.40;;;8.00;99.90;;;;;;5065831;28;20458;-77
2021/12/14 07:38:45;;;;;;;107.25;49.60;;;7.90;99.90;;;;;;5066808;28;20505;-77
2021/12/14 07:41:33;;;;;;;70.55;38.75;;;7.90;99.90;;;;;;5070872;28;20196;-76
2021/12/14 07:44:22;;;;;;;62.70;35.72;;;8.00;99.90;;;;;;5071599;28;20196;-77
2021/12/14 07:47:14;;;;;;;70.47;39.20;;;7.90;99.90;;;;;;5065540;28;20197;-77
2021/12/14 07:50:00;;;;;;;50.15;32.13;;;7.90;99.90;;;;;;5073617;28;20566;-77
2021/12/14 07:52:46;;;;;;;50.13;30.73;;;7.90;99.90;;;;;;5061984;28;20227;-77
2021/12/14 07:55:37;;;;;;;54.88;33.25;;;7.90;99.90;;;;;;5073989;22;20487;-75
2021/12/14 07:58:31;;;;;;;44.33;30.90;;;7.90;99.90;;;;;;5046703;28;20206;-75
2021/12/14 08:01:18;;;;;;;50.60;31.40;;;7.90;99.90;;;;;;5045820;28;20435;-75
2021/12/14 08:04:10;;;;;;;46.93;29.13;;;7.90;99.90;;;;;;5043339;28;20200;-74
2021/12/14 08:06:56;;;;;;;56.53;33.25;;;7.80;99.90;;;;;;5046689;28;20972;-73
2021/12/14 08:09:49;;;;;;;57.55;34.45;;;7.80;99.90;;;;;;5035067;28;20228;-73
2021/12/14 08:12:39;;;;;;;53.72;33.13;;;7.80;99.90;;;;;;5043865;28;20236;-73
2021/12/14 08:15:28;;;;;;;61.05;32.92;;;7.70;99.90;;;;;;5045052;28;20323;-73
2021/12/14 08:18:18;;;;;;;51.38;27.90;;;7.70;99.90;;;;;;5029160;28;20205;-72
2021/12/14 08:21:07;;;;;;;55.17;30.23;;;7.60;99.90;;;;;;5031188;28;20206;-73
2021/12/14 08:23:54;;;;;;;62.63;32.33;;;7.70;99.90;;;;;;5031098;28;20201;-73
2021/12/14 08:26:44;;;;;;;50.58;31.90;;;7.80;99.90;;;;;;5039008;28;20291;-73
2021/12/14 08:29:32;;;;;;;52.08;31.15;;;7.80;99.90;;;;;;5046685;28;20209;-73
2021/12/14 08:32:21;;;;;;;59.72;30.20;;;7.80;99.90;;;;;;5050781;28;20347;-73
2021/12/14 08:35:11;;;;;;;54.25;31.40;;;7.80;99.90;;;;;;5051402;28;20713;-73
2021/12/14 08:38:01;;;;;;;47.45;28.02;;;7.80;99.90;;;;;;5036145;28;20201;-73
2021/12/14 08:40:50;;;;;;;42.80;27.50;;;7.80;99.90;;;;;;5035132;28;20609;-73
2021/12/14 08:43:36;;;;;;;55.38;33.38;;;7.90;99.90;;;;;;5033104;28;20683;-73
2021/12/14 08:46:25;;;;;;;53.80;30.83;;;7.80;99.90;;;;;;5020521;28;20618;-73
2021/12/14 08:49:15;;;;;;;54.17;28.92;;;7.90;99.90;;;;;;5014358;28;20211;-73
2021/12/14 08:52:04;;;;;;;44.72;27.50;;;7.90;99.90;;;;;;5011882;28;20218;-73
2021/12/14 08:54:50;;;;;;;45.63;26.58;;;7.90;99.90;;;;;;5014797;28;20218;-75
2021/12/14 08:57:37;;;;;;;49.13;29.38;;;7.80;99.90;;;;;;5036441;28;20201;-75
2021/12/14 09:00:28;;;;;;;44.13;26.60;;;7.80;99.90;;;;;;5054340;28;20205;-72
2021/12/14 09:03:24;;;;;;;55.03;26.70;;;7.80;99.90;;;;;;5014721;28;20707;-73
2021/12/14 09:06:13;;;;;;;60.70;31.25;;;7.80;99.90;;;;;;5023014;28;20241;-75
2021/12/14 09:09:05;;;;;;;57.35;28.98;;;7.80;99.90;;;;;;5020706;28;20202;-74
2021/12/14 09:11:56;;;;;;;53.08;27.63;;;7.70;99.90;;;;;;5035895;28;20575;-75
2021/12/14 09:14:44;;;;;;;58.30;27.80;;;7.70;99.90;;;;;;5042231;28;20309;-75
2021/12/14 09:17:29;;;;;;;51.83;27.55;;;7.70;99.90;;;;;;5035382;28;20221;-74
2021/12/14 09:20:20;;;;;;;61.03;29.10;;;7.60;99.90;;;;;;5026012;28;20207;-75
2021/12/14 09:23:12;;;;;;;55.50;27.08;;;7.60;99.90;;;;;;5021157;28;20214;-75
2021/12/14 09:26:03;;;;;;;56.00;27.90;;;7.60;99.90;;;;;;5018267;28;20249;-75
2021/12/14 09:28:50;;;;;;;56.10;28.13;;;7.60;99.90;;;;;;5037173;28;20208;-75
2021/12/14 09:31:39;;;;;;;49.70;28.45;;;7.50;99.90;;;;;;5054020;28;20205;-75
2021/12/14 09:34:28;;;;;;;61.60;29.50;;;7.50;99.90;;;;;;5037565;28;20287;-75
2021/12/14 09:37:16;;;;;;;53.40;28.10;;;7.50;99.90;;;;;;5032044;28;20201;-75
2021/12/14 09:40:09;;;;;;;43.67;22.60;;;7.50;99.90;;;;;;5024599;28;20213;-75
2021/12/14 09:42:57;;;;;;;35.85;21.73;;;7.40;99.90;;;;;;5033173;28;20581;-75
2021/12/14 09:45:44;;;;;;;41.78;24.20;;;7.40;99.90;;;;;;5033392;28;20292;-75
2021/12/14 09:48:35;;;;;;;33.08;20.60;;;7.40;99.90;;;;;;5015058;28;20202;-74
2021/12/14 09:51:23;;;;;;;34.60;23.10;;;7.50;99.90;;;;;;5032178;28;20205;-74
2021/12/14 09:54:13;;;;;;;35.40;22.52;;;7.50;99.90;;;;;;5032637;28;20200;-74
2021/12/14 09:57:01;;;;;;;41.22;22.90;;;7.50;99.90;;;;;;5025476;28;20221;-75
2021/12/14 09:59:49;;;;;;;33.38;21.70;;;7.60;99.90;;;;;;5053290;28;20709;-75
2021/12/14 10:02:39;;;;;;;35.70;23.20;;;7.70;99.90;;;;;;5052942;28;20248;-75
2021/12/14 10:05:30;;;;;;;41.47;24.65;;;7.70;99.90;;;;;;5052242;28;20216;-75
2021/12/14 10:08:19;;;;;;;40.35;25.67;;;7.70;99.90;;;;;;5015676;28;20260;-75
2021/12/14 10:11:09;;;;;;;48.33;26.88;;;7.60;99.90;;;;;;5027376;28;20213;-76
2021/12/14 10:13:57;;;;;;;41.28;26.48;;;7.60;99.90;;;;;;5027029;28;20220;-75
2021/12/14 10:16:45;;;;;;;40.17;24.38;;;7.60;99.90;;;;;;5041656;28;20237;-75
2021/12/14 10:19:33;;;;;;;44.47;25.33;;;7.70;99.90;;;;;;5050661;28;20200;-75
2021/12/14 10:22:24;;;;;;;44.63;26.20;;;7.80;99.90;;;;;;5038931;28;20247;-75
2021/12/14 10:25:13;;;;;;;40.40;24.60;;;7.80;99.90;;;;;;5032143;28;20720;-75
2021/12/14 10:27:59;;;;;;;40.92;26.33;;;7.90;99.90;;;;;;5032586;28;20277;-75
2021/12/14 10:30:49;;;;;;;42.30;25.13;;;7.80;99.90;;;;;;5049231;28;20580;-75
2021/12/14 10:33:39;;;;;;;45.10;26.33;;;7.80;99.90;;;;;;5052133;28;20220;-75
2021/12/14 10:36:32;;;;;;;51.22;27.10;;;7.70;99.90;;;;;;5027426;28;20224;-75
2021/12/14 10:39:35;;;;;;;48.90;28.20;;;7.70;99.90;;;;;;5028906;28;20620;-75
2021/12/14 10:45:27;;;;;;;45.92;27.02;;;7.70;99.90;;;;;;5028682;28;20674;-75
2021/12/14 10:48:14;;;;;;;49.53;28.03;;;7.70;99.90;;;;;;5030071;28;20281;-75
2021/12/14 10:51:05;;;;;;;52.90;27.67;;;7.80;99.90;;;;;;5036508;28;20451;-75
2021/12/14 10:53:53;;;;;;;52.35;29.00;;;7.80;99.90;;;;;;5039771;28;20664;-75
2021/12/14 10:56:42;;;;;;;49.45;27.92;;;7.90;99.90;;;;;;5027883;28;20234;-75
2021/12/14 10:59:32;;;;;;;53.60;30.83;;;7.80;99.90;;;;;;5034174;28;20285;-76
2021/12/14 11:02:21;;;;;;;67.88;33.45;;;7.80;99.90;;;;;;5037154;28;20732;-75
2021/12/14 11:05:15;;;;;;;55.40;31.17;;;7.80;99.90;;;;;;5012349;28;20218;-76
2021/12/14 11:08:03;;;;;;;52.45;29.70;;;7.70;99.90;;;;;;5029133;28;20235;-76
2021/12/14 11:10:49;;;;;;;57.28;32.63;;;7.70;99.90;;;;;;5041544;28;20204;-75
2021/12/14 11:13:41;;;;;;;59.28;34.03;;;7.70;99.90;;;;;;5037295;28;20225;-75
2021/12/14 11:18:07;;;;;;;65.45;33.10;;;7.70;99.90;;;;;;5031514;28;20226;-74
2021/12/14 11:19:43;;;;;;;57.72;33.08;;;7.70;99.90;;;;;;5028566;28;20217;-75
2021/12/14 11:22:32;;;;;;;59.70;32.67;;;7.70;99.90;;;;;;5043141;28;20198;-75
2021/12/14 11:25:22;;;;;;;58.78;34.38;;;7.70;99.90;;;;;;5033800;28;20245;-75
2021/12/14 11:28:10;;;;;;;67.35;33.22;;;7.70;99.90;;;;;;5051629;28;20204;-75
2021/12/14 11:31:01;;;;;;;59.55;32.30;;;7.70;99.90;;;;;;5051537;28;20282;-75
2021/12/14 11:33:50;;;;;;;54.78;29.30;;;7.80;99.90;;;;;;5051266;28;20220;-75
2021/12/14 11:36:38;;;;;;;51.50;28.80;;;7.70;99.90;;;;;;5020570;28;20689;-76
2021/12/14 11:39:28;;;;;;;57.42;32.08;;;7.80;99.90;;;;;;5012110;28;20194;-75
2021/12/14 11:42:24;;;;;;;56.95;29.80;;;7.80;99.90;;;;;;5011725;28;20198;-75
2021/12/14 11:45:16;;;;;;;69.93;30.93;;;7.80;99.90;;;;;;5013879;28;20430;-76
2021/12/14 11:48:03;;;;;;;51.53;28.48;;;7.70;99.90;;;;;;5011535;28;20418;-75
2021/12/14 11:50:49;;;;;;;56.95;28.55;;;7.70;99.90;;;;;;5012064;28;20206;-75
2021/12/14 11:53:35;;;;;;;46.97;27.20;;;7.70;99.90;;;;;;5011150;28;20814;-75
2021/12/14 11:56:23;;;;;;;45.38;23.48;;;7.70;99.90;;;;;;5024003;28;20235;-75
2021/12/14 11:59:10;;;;;;;44.88;23.52;;;7.80;99.90;;;;;;5038842;28;20278;-75
2021/12/14 12:01:56;;;;;;;47.23;23.70;;;7.80;99.90;;;;;;5051658;28;20185;-75
2021/12/14 12:04:46;;;;;;;38.73;22.30;;;7.80;99.90;;;;;;5044282;28;20449;-75
2021/12/14 12:10:42;;;;;;;49.87;25.13;;;7.70;99.90;;;;;;5040087;28;20235;-73
2021/12/14 12:13:35;;;;;;;47.17;25.48;;;7.80;99.90;;;;;;5044246;28;20868;-73
2021/12/14 12:16:24;;;;;;;42.42;22.80;;;7.90;99.90;;;;;;5029143;28;20590;-75
2021/12/14 12:19:14;;;;;;;47.05;27.48;;;7.90;99.90;;;;;;5024118;28;20210;-75
2021/12/14 12:22:09;;;;;;;43.03;24.35;;;7.90;99.90;;;;;;5025592;28;20216;-75
2021/12/14 12:24:57;;;;;;;45.30;24.40;;;7.90;99.90;;;;;;5027340;28;20201;-75
2021/12/14 12:27:47;;;;;;;44.00;23.92;;;7.90;99.90;;;;;;5030269;28;20782;-75
2021/12/14 12:30:44;;;;;;;41.85;22.90;;;7.90;99.90;;;;;;5038099;28;20252;-75
2021/12/14 12:33:34;;;;;;;55.13;25.45;;;7.90;99.90;;;;;;5039876;28;20268;-75
2021/12/14 12:36:23;;;;;;;46.30;25.58;;;7.90;99.90;;;;;;5041030;28;20229;-75
2021/12/14 12:39:12;;;;;;;45.75;24.25;;;8.00;99.90;;;;;;5044456;28;20204;-75
2021/12/14 12:42:00;;;;;;;41.08;23.88;;;8.00;99.90;;;;;;5039407;28;20591;-75
2021/12/14 12:44:47;;;;;;;44.13;25.25;;;8.10;99.90;;;;;;5031664;28;20193;-75
2021/12/14 12:47:32;;;;;;;49.22;28.80;;;8.00;99.90;;;;;;5030695;28;20209;-75
2021/12/14 12:50:24;;;;;;;48.93;25.50;;;8.00;99.90;;;;;;5040806;28;20213;-75
2021/12/14 12:53:23;;;;;;;45.25;24.95;;;8.10;99.90;;;;;;5039537;28;20470;-75
2021/12/14 12:56:13;;;;;;;46.55;24.95;;;8.10;99.90;;;;;;5036096;28;20235;-75
2021/12/14 12:58:59;;;;;;;52.22;25.77;;;8.10;99.90;;;;;;5033532;28;20339;-75
2021/12/14 13:01:44;;;;;;;43.05;24.15;;;8.10;99.90;;;;;;5025967;28;20205;-75
2021/12/14 13:04:39;;;;;;;38.42;22.50;;;8.00;99.90;;;;;;5037266;28;20205;-76
2021/12/14 13:07:33;;;;;;;49.10;26.52;;;7.90;99.90;;;;;;5044655;28;20205;-75
2021/12/14 13:10:24;;;;;;;46.30;25.20;;;7.90;99.90;;;;;;5039347;28;20563;-75
2021/12/14 13:13:12;;;;;;;42.63;25.00;;;7.90;99.90;;;;;;5029487;28;20464;-76
2021/12/14 13:16:07;;;;;;;41.95;24.52;;;7.90;99.90;;;;;;5029390;28;20464;-75
2021/12/14 13:18:56;;;;;;;49.08;22.85;;;8.00;99.90;;;;;;5035538;28;20201;-75
2021/12/14 13:21:47;;;;;;;41.58;23.80;;;8.00;99.90;;;;;;5048096;28;20697;-75
2021/12/14 13:24:35;;;;;;;46.70;27.00;;;7.90;99.90;;;;;;5041722;28;20573;-75
2021/12/14 13:27:24;;;;;;;45.22;23.77;;;8.00;99.90;;;;;;5032755;28;20682;-75
2021/12/14 13:30:11;;;;;;;44.55;25.25;;;8.00;99.90;;;;;;5027997;28;20208;-75
2021/12/14 13:32:56;;;;;;;49.92;25.92;;;7.90;99.90;;;;;;5022356;28;20263;-75
2021/12/14 13:35:42;;;;;;;48.75;25.83;;;8.00;99.90;;;;;;5040433;28;20311;-75
2021/12/14 13:38:28;;;;;;;48.88;25.95;;;7.90;99.90;;;;;;5034559;28;20201;-75
2021/12/14 13:41:48;;;;;;;52.08;25.88;;;7.90;99.90;;;;;;5028673;28;20205;-75
2021/12/14 13:44:36;;;;;;;46.38;25.13;;;7.80;99.90;;;;;;5038362;28;20201;-75
2021/12/14 13:47:28;;;;;;;51.88;24.50;;;7.80;99.90;;;;;;5039204;28;20552;-75
2021/12/14 13:50:18;;;;;;;58.25;25.42;;;7.80;99.90;;;;;;5032865;28;20216;-75
2021/12/14 13:53:03;;;;;;;41.03;21.95;;;7.80;99.90;;;;;;5039268;28;20229;-75
2021/12/14 13:55:51;;;;;;;46.03;23.05;;;7.70;99.90;;;;;;5051960;22;20333;-75
2021/12/14 13:58:39;;;;;;;54.60;24.00;;;7.70;99.90;;;;;;5065283;28;20208;-76
2021/12/14 14:01:29;;;;;;;48.22;22.88;;;7.60;99.90;;;;;;5069288;28;20242;-76
2021/12/14 14:04:17;;;;;;;44.35;22.50;;;7.60;99.90;;;;;;5065611;28;20330;-76
2021/12/14 14:07:03;;;;;;;46.97;22.83;;;7.60;99.90;;;;;;5064941;28;20478;-76
2021/12/14 14:09:50;;;;;;;48.17;23.52;;;7.70;99.90;;;;;;5063474;28;20231;-76
2021/12/14 14:12:47;;;;;;;47.15;21.25;;;7.70;99.90;;;;;;5058004;28;21978;-76
2021/12/14 14:15:37;;;;;;;42.63;20.60;;;7.70;99.90;;;;;;5061195;28;20220;-76
2021/12/14 14:18:29;;;;;;;38.35;21.17;;;7.70;99.90;;;;;;5055697;28;20186;-77
2021/12/14 14:21:16;;;;;;;46.13;23.15;;;7.80;99.90;;;;;;5035772;28;20223;-76
2021/12/14 14:24:02;;;;;;;48.17;22.45;;;7.80;99.90;;;;;;5045962;28;20776;-75
2021/12/14 14:26:48;;;;;;;43.13;22.58;;;7.90;99.90;;;;;;5063999;28;20322;-76
2021/12/14 14:29:42;;;;;;;40.95;24.83;;;7.90;99.90;;;;;;5060368;28;20681;-76
2021/12/14 14:32:35;;;;;;;40.47;20.52;;;8.00;99.90;;;;;;5056046;28;20201;-76
2021/12/14 14:35:21;;;;;;;36.72;20.17;;;7.90;99.90;;;;;;5035503;28;20221;-75
2021/12/14 14:38:32;;;;;;;40.78;21.50;;;7.90;99.90;;;;;;5052422;28;20196;-77
2021/12/14 14:41:35;;;;;;;39.33;20.77;;;7.90;99.90;;;;;;5043708;28;20217;-76
2021/12/14 14:44:30;;;;;;;38.03;21.42;;;7.80;99.90;;;;;;5046410;28;20471;-76
2021/12/14 14:47:33;;;;;;;37.50;18.95;;;7.90;99.90;;;;;;5059688;28;20227;-76
2021/12/14 14:50:27;;;;;;;43.45;21.15;;;7.90;99.90;;;;;;5045905;28;20204;-75
2021/12/14 14:53:16;;;;;;;41.90;21.77;;;7.80;99.90;;;;;;5040558;28;20288;-76
2021/12/14 14:56:02;;;;;;;41.95;19.55;;;7.80;99.90;;;;;;5051366;28;20271;-76
2021/12/14 14:58:48;;;;;;;41.40;21.30;;;7.80;99.90;;;;;;5063704;28;20587;-75
2021/12/14 15:01:33;;;;;;;33.03;17.48;;;7.90;99.90;;;;;;5056379;28;20205;-75